sensor_id;sensor_type;location;lat;lon;timestamp;P1;durP1;ratioP1;P2;durP2;ratioP2
5135;SDS011;2586;48.710;9.202;2022-09-12T00:01:47;14.30;;;9.73;;
5135;SDS011;2586;48.710;9.202;2022-09-12T00:04:13;10.13;;;8.57;;
5135;SDS011;2586;48.710;9.202;2022-09-12T00:06:38;15.27;;;11.00;;
5135;SDS011;2586;48.710;9.202;2022-09-12T00:09:08;14.87;;;10.90;;
5135;SDS011;2586;48.710;9.202;2022-09-12T00:11:36;16.63;;;9.53;;
5135;SDS011;2586;48.710;9.202;2022-09-12T00:14:07;12.53;;;10.80;;
5135;SDS011;2586;48.710;9.202;2022-09-12T00:16:35;14.67;;;10.30;;
5135;SDS011;2586;48.710;9.202;2022-09-12T00:19:01;12.47;;;10.63;;
5135;SDS011;2586;48.710;9.202;2022-09-12T00:21:28;12.03;;;10.13;;
5135;SDS011;2586;48.710;9.202;2022-09-12T00:23:54;12.23;;;10.97;;
5135;SDS011;2586;48.710;9.202;2022-09-12T00:26:20;13.17;;;10.53;;
5135;SDS011;2586;48.710;9.202;2022-09-12T00:28:46;13.27;;;11.27;;
5135;SDS011;2586;48.710;9.202;2022-09-12T00:31:13;19.13;;;10.00;;
5135;SDS011;2586;48.710;9.202;2022-09-12T00:33:44;12.70;;;11.30;;
5135;SDS011;2586;48.710;9.202;2022-09-12T00:36:11;12.03;;;9.10;;
5135;SDS011;2586;48.710;9.202;2022-09-12T00:38:40;13.63;;;11.10;;
5135;SDS011;2586;48.710;9.202;2022-09-12T00:41:06;12.07;;;10.53;;
5135;SDS011;2586;48.710;9.202;2022-09-12T00:43:38;11.73;;;10.03;;
5135;SDS011;2586;48.710;9.202;2022-09-12T00:46:09;17.47;;;10.70;;
5135;SDS011;2586;48.710;9.202;2022-09-12T00:48:49;14.50;;;10.20;;
5135;SDS011;2586;48.710;9.202;2022-09-12T00:51:19;11.47;;;10.03;;
5135;SDS011;2586;48.710;9.202;2022-09-12T00:53:45;12.77;;;10.40;;
5135;SDS011;2586;48.710;9.202;2022-09-12T00:56:13;13.73;;;9.80;;
5135;SDS011;2586;48.710;9.202;2022-09-12T00:58:53;11.37;;;10.13;;
5135;SDS011;2586;48.710;9.202;2022-09-12T01:01:25;10.13;;;8.10;;
5135;SDS011;2586;48.710;9.202;2022-09-12T01:03:51;11.77;;;10.47;;
5135;SDS011;2586;48.710;9.202;2022-09-12T01:06:19;10.40;;;9.33;;
5135;SDS011;2586;48.710;9.202;2022-09-12T01:08:48;11.20;;;8.43;;
5135;SDS011;2586;48.710;9.202;2022-09-12T01:11:16;9.57;;;8.57;;
5135;SDS011;2586;48.710;9.202;2022-09-12T01:13:44;12.40;;;9.63;;
5135;SDS011;2586;48.710;9.202;2022-09-12T01:16:10;13.50;;;10.40;;
5135;SDS011;2586;48.710;9.202;2022-09-12T01:24:36;10.07;;;9.07;;
5135;SDS011;2586;48.710;9.202;2022-09-12T01:35:33;14.23;;;8.30;;
5135;SDS011;2586;48.710;9.202;2022-09-12T01:39:07;12.00;;;9.07;;
5135;SDS011;2586;48.710;9.202;2022-09-12T01:46:57;12.80;;;10.90;;
5135;SDS011;2586;48.710;9.202;2022-09-12T01:49:35;13.27;;;11.07;;
5135;SDS011;2586;48.710;9.202;2022-09-12T01:52:25;12.47;;;9.37;;
5135;SDS011;2586;48.710;9.202;2022-09-12T01:55:11;12.20;;;9.77;;
5135;SDS011;2586;48.710;9.202;2022-09-12T01:57:50;20.43;;;10.87;;
5135;SDS011;2586;48.710;9.202;2022-09-12T02:00:31;12.53;;;10.00;;
5135;SDS011;2586;48.710;9.202;2022-09-12T02:03:03;12.97;;;11.57;;
5135;SDS011;2586;48.710;9.202;2022-09-12T02:05:40;12.50;;;10.40;;
5135;SDS011;2586;48.710;9.202;2022-09-12T02:08:12;10.07;;;8.97;;
5135;SDS011;2586;48.710;9.202;2022-09-12T02:10:56;10.47;;;9.47;;
5135;SDS011;2586;48.710;9.202;2022-09-12T02:13:25;22.40;;;10.23;;
5135;SDS011;2586;48.710;9.202;2022-09-12T02:18:59;15.47;;;10.27;;
5135;SDS011;2586;48.710;9.202;2022-09-12T02:21:32;13.03;;;10.17;;
5135;SDS011;2586;48.710;9.202;2022-09-12T02:24:03;19.87;;;11.37;;
5135;SDS011;2586;48.710;9.202;2022-09-12T02:26:34;12.10;;;10.57;;
5135;SDS011;2586;48.710;9.202;2022-09-12T02:29:18;11.90;;;10.57;;
5135;SDS011;2586;48.710;9.202;2022-09-12T02:31:45;12.20;;;10.30;;
5135;SDS011;2586;48.710;9.202;2022-09-12T02:39:32;13.90;;;10.93;;
5135;SDS011;2586;48.710;9.202;2022-09-12T02:41:59;13.60;;;11.43;;
5135;SDS011;2586;48.710;9.202;2022-09-12T02:44:26;14.03;;;12.07;;
5135;SDS011;2586;48.710;9.202;2022-09-12T02:46:55;14.63;;;11.23;;
5135;SDS011;2586;48.710;9.202;2022-09-12T02:49:27;18.17;;;11.93;;
5135;SDS011;2586;48.710;9.202;2022-09-12T02:51:53;19.30;;;14.27;;
5135;SDS011;2586;48.710;9.202;2022-09-12T02:54:19;17.00;;;12.83;;
5135;SDS011;2586;48.710;9.202;2022-09-12T02:56:46;15.20;;;12.60;;
5135;SDS011;2586;48.710;9.202;2022-09-12T02:59:13;23.63;;;13.53;;
5135;SDS011;2586;48.710;9.202;2022-09-12T03:10:06;15.60;;;12.30;;
5135;SDS011;2586;48.710;9.202;2022-09-12T03:12:57;14.03;;;12.13;;
5135;SDS011;2586;48.710;9.202;2022-09-12T03:18:40;15.77;;;12.30;;
5135;SDS011;2586;48.710;9.202;2022-09-12T03:29:34;14.70;;;12.40;;
5135;SDS011;2586;48.710;9.202;2022-09-12T03:32:02;15.40;;;11.43;;
5135;SDS011;2586;48.710;9.202;2022-09-12T03:34:28;17.80;;;12.13;;
5135;SDS011;2586;48.710;9.202;2022-09-12T03:36:54;12.60;;;10.40;;
5135;SDS011;2586;48.710;9.202;2022-09-12T03:39:20;13.50;;;11.43;;
5135;SDS011;2586;48.710;9.202;2022-09-12T03:41:48;12.67;;;11.03;;
5135;SDS011;2586;48.710;9.202;2022-09-12T03:44:14;14.10;;;11.53;;
5135;SDS011;2586;48.710;9.202;2022-09-12T03:46:40;14.23;;;11.80;;
5135;SDS011;2586;48.710;9.202;2022-09-12T03:49:05;14.90;;;12.23;;
5135;SDS011;2586;48.710;9.202;2022-09-12T03:51:31;16.13;;;13.10;;
5135;SDS011;2586;48.710;9.202;2022-09-12T03:53:57;18.00;;;12.27;;
5135;SDS011;2586;48.710;9.202;2022-09-12T03:56:22;19.17;;;11.23;;
5135;SDS011;2586;48.710;9.202;2022-09-12T03:58:48;23.33;;;12.50;;
5135;SDS011;2586;48.710;9.202;2022-09-12T04:01:15;13.57;;;11.77;;
5135;SDS011;2586;48.710;9.202;2022-09-12T04:03:42;16.40;;;12.07;;
5135;SDS011;2586;48.710;9.202;2022-09-12T04:06:09;14.40;;;11.97;;
5135;SDS011;2586;48.710;9.202;2022-09-12T04:08:37;13.60;;;11.20;;
5135;SDS011;2586;48.710;9.202;2022-09-12T04:11:03;21.33;;;16.83;;
5135;SDS011;2586;48.710;9.202;2022-09-12T04:13:29;16.93;;;12.67;;
5135;SDS011;2586;48.710;9.202;2022-09-12T04:15:56;14.40;;;12.10;;
5135;SDS011;2586;48.710;9.202;2022-09-12T04:18:22;19.83;;;11.80;;
5135;SDS011;2586;48.710;9.202;2022-09-12T04:20:48;16.40;;;11.63;;
5135;SDS011;2586;48.710;9.202;2022-09-12T04:23:13;18.70;;;12.90;;
5135;SDS011;2586;48.710;9.202;2022-09-12T04:25:39;14.90;;;11.80;;
5135;SDS011;2586;48.710;9.202;2022-09-12T04:28:04;16.47;;;12.80;;
5135;SDS011;2586;48.710;9.202;2022-09-12T04:30:31;15.10;;;12.33;;
5135;SDS011;2586;48.710;9.202;2022-09-12T04:32:58;22.03;;;13.07;;
5135;SDS011;2586;48.710;9.202;2022-09-12T04:35:24;14.10;;;11.70;;
5135;SDS011;2586;48.710;9.202;2022-09-12T04:37:50;14.10;;;11.43;;
5135;SDS011;2586;48.710;9.202;2022-09-12T04:40:16;20.60;;;13.70;;
5135;SDS011;2586;48.710;9.202;2022-09-12T04:42:42;22.00;;;14.43;;
5135;SDS011;2586;48.710;9.202;2022-09-12T04:45:08;18.00;;;13.20;;
5135;SDS011;2586;48.710;9.202;2022-09-12T04:47:34;17.80;;;12.60;;
5135;SDS011;2586;48.710;9.202;2022-09-12T04:50:00;19.17;;;11.93;;
5135;SDS011;2586;48.710;9.202;2022-09-12T04:52:25;19.37;;;12.80;;
5135;SDS011;2586;48.710;9.202;2022-09-12T04:54:51;26.33;;;13.27;;
5135;SDS011;2586;48.710;9.202;2022-09-12T04:57:17;19.47;;;13.33;;
5135;SDS011;2586;48.710;9.202;2022-09-12T04:59:42;15.67;;;12.23;;
5135;SDS011;2586;48.710;9.202;2022-09-12T05:02:08;16.80;;;13.33;;
5135;SDS011;2586;48.710;9.202;2022-09-12T05:04:34;15.00;;;11.80;;
5135;SDS011;2586;48.710;9.202;2022-09-12T05:07:00;16.00;;;10.70;;
5135;SDS011;2586;48.710;9.202;2022-09-12T05:09:25;21.83;;;11.50;;
5135;SDS011;2586;48.710;9.202;2022-09-12T05:11:51;12.57;;;10.17;;
5135;SDS011;2586;48.710;9.202;2022-09-12T05:14:16;14.60;;;11.65;;
5135;SDS011;2586;48.710;9.202;2022-09-12T05:16:42;16.80;;;10.93;;
5135;SDS011;2586;48.710;9.202;2022-09-12T05:19:09;16.03;;;12.17;;
5135;SDS011;2586;48.710;9.202;2022-09-12T05:21:35;18.37;;;11.40;;
5135;SDS011;2586;48.710;9.202;2022-09-12T05:24:01;25.33;;;13.10;;
5135;SDS011;2586;48.710;9.202;2022-09-12T05:26:27;12.03;;;10.77;;
5135;SDS011;2586;48.710;9.202;2022-09-12T05:28:55;13.83;;;9.90;;
5135;SDS011;2586;48.710;9.202;2022-09-12T05:31:25;12.10;;;9.50;;
5135;SDS011;2586;48.710;9.202;2022-09-12T05:33:52;15.83;;;9.90;;
5135;SDS011;2586;48.710;9.202;2022-09-12T05:36:20;16.30;;;11.07;;
5135;SDS011;2586;48.710;9.202;2022-09-12T05:38:47;16.43;;;10.70;;
5135;SDS011;2586;48.710;9.202;2022-09-12T05:43:43;26.00;;;15.43;;
5135;SDS011;2586;48.710;9.202;2022-09-12T05:46:16;22.20;;;15.23;;
5135;SDS011;2586;48.710;9.202;2022-09-12T05:48:44;20.63;;;15.00;;
5135;SDS011;2586;48.710;9.202;2022-09-12T05:51:12;26.40;;;15.80;;
5135;SDS011;2586;48.710;9.202;2022-09-12T05:53:43;22.67;;;15.10;;
5135;SDS011;2586;48.710;9.202;2022-09-12T05:56:12;21.50;;;14.47;;
5135;SDS011;2586;48.710;9.202;2022-09-12T05:58:40;23.73;;;14.27;;
5135;SDS011;2586;48.710;9.202;2022-09-12T06:01:10;23.17;;;15.30;;
5135;SDS011;2586;48.710;9.202;2022-09-12T06:03:44;16.83;;;14.07;;
5135;SDS011;2586;48.710;9.202;2022-09-12T06:06:12;18.50;;;14.33;;
5135;SDS011;2586;48.710;9.202;2022-09-12T06:08:43;18.60;;;14.20;;
5135;SDS011;2586;48.710;9.202;2022-09-12T06:11:10;16.57;;;14.20;;
5135;SDS011;2586;48.710;9.202;2022-09-12T06:13:38;17.23;;;14.90;;
5135;SDS011;2586;48.710;9.202;2022-09-12T06:16:24;20.90;;;15.50;;
5135;SDS011;2586;48.710;9.202;2022-09-12T06:18:55;20.70;;;14.50;;
5135;SDS011;2586;48.710;9.202;2022-09-12T06:21:23;24.80;;;15.00;;
5135;SDS011;2586;48.710;9.202;2022-09-12T06:23:50;20.87;;;16.87;;
5135;SDS011;2586;48.710;9.202;2022-09-12T06:26:18;25.07;;;16.60;;
5135;SDS011;2586;48.710;9.202;2022-09-12T06:28:47;21.03;;;14.10;;
5135;SDS011;2586;48.710;9.202;2022-09-12T06:31:15;26.53;;;15.00;;
5135;SDS011;2586;48.710;9.202;2022-09-12T06:33:43;26.97;;;17.33;;
5135;SDS011;2586;48.710;9.202;2022-09-12T06:36:11;20.67;;;16.43;;
5135;SDS011;2586;48.710;9.202;2022-09-12T06:38:40;23.57;;;15.00;;
5135;SDS011;2586;48.710;9.202;2022-09-12T06:41:09;18.00;;;14.97;;
5135;SDS011;2586;48.710;9.202;2022-09-12T06:43:36;18.40;;;13.90;;
5135;SDS011;2586;48.710;9.202;2022-09-12T06:46:03;21.10;;;17.10;;
5135;SDS011;2586;48.710;9.202;2022-09-12T06:48:29;22.10;;;16.03;;
5135;SDS011;2586;48.710;9.202;2022-09-12T06:50:56;24.90;;;16.57;;
5135;SDS011;2586;48.710;9.202;2022-09-12T06:53:34;18.30;;;14.83;;
5135;SDS011;2586;48.710;9.202;2022-09-12T06:56:04;15.17;;;13.33;;
5135;SDS011;2586;48.710;9.202;2022-09-12T06:58:31;17.13;;;14.27;;
5135;SDS011;2586;48.710;9.202;2022-09-12T07:01:07;14.07;;;12.47;;
5135;SDS011;2586;48.710;9.202;2022-09-12T07:03:35;16.57;;;14.17;;
5135;SDS011;2586;48.710;9.202;2022-09-12T07:06:02;17.07;;;12.93;;
5135;SDS011;2586;48.710;9.202;2022-09-12T07:08:33;18.20;;;13.73;;
5135;SDS011;2586;48.710;9.202;2022-09-12T07:11:22;19.03;;;12.70;;
5135;SDS011;2586;48.710;9.202;2022-09-12T07:13:49;23.67;;;11.87;;
5135;SDS011;2586;48.710;9.202;2022-09-12T07:16:16;18.20;;;12.83;;
5135;SDS011;2586;48.710;9.202;2022-09-12T07:18:42;14.70;;;12.60;;
5135;SDS011;2586;48.710;9.202;2022-09-12T07:21:10;27.17;;;13.10;;
5135;SDS011;2586;48.710;9.202;2022-09-12T07:23:37;21.13;;;12.63;;
5135;SDS011;2586;48.710;9.202;2022-09-12T07:26:05;20.63;;;12.20;;
5135;SDS011;2586;48.710;9.202;2022-09-12T07:28:32;22.30;;;12.80;;
5135;SDS011;2586;48.710;9.202;2022-09-12T07:31:04;14.67;;;12.20;;
5135;SDS011;2586;48.710;9.202;2022-09-12T07:33:37;21.47;;;12.40;;
5135;SDS011;2586;48.710;9.202;2022-09-12T07:36:03;55.03;;;11.90;;
5135;SDS011;2586;48.710;9.202;2022-09-12T07:38:35;12.60;;;10.73;;
5135;SDS011;2586;48.710;9.202;2022-09-12T07:41:08;11.07;;;9.90;;
5135;SDS011;2586;48.710;9.202;2022-09-12T07:43:34;16.57;;;9.90;;
5135;SDS011;2586;48.710;9.202;2022-09-12T07:46:00;23.73;;;10.50;;
5135;SDS011;2586;48.710;9.202;2022-09-12T07:48:25;19.93;;;11.73;;
5135;SDS011;2586;48.710;9.202;2022-09-12T07:50:58;17.80;;;10.80;;
5135;SDS011;2586;48.710;9.202;2022-09-12T07:53:32;14.03;;;10.20;;
5135;SDS011;2586;48.710;9.202;2022-09-12T07:55:59;14.27;;;9.97;;
5135;SDS011;2586;48.710;9.202;2022-09-12T07:58:27;10.63;;;9.53;;
5135;SDS011;2586;48.710;9.202;2022-09-12T08:00:54;18.60;;;10.30;;
5135;SDS011;2586;48.710;9.202;2022-09-12T08:03:28;25.97;;;9.37;;
5135;SDS011;2586;48.710;9.202;2022-09-12T08:05:54;19.43;;;8.67;;
5135;SDS011;2586;48.710;9.202;2022-09-12T08:08:19;15.23;;;8.40;;
5135;SDS011;2586;48.710;9.202;2022-09-12T08:10:45;12.60;;;7.90;;
5135;SDS011;2586;48.710;9.202;2022-09-12T08:13:11;13.30;;;9.20;;
5135;SDS011;2586;48.710;9.202;2022-09-12T08:15:37;15.23;;;7.80;;
5135;SDS011;2586;48.710;9.202;2022-09-12T08:18:02;14.33;;;7.20;;
5135;SDS011;2586;48.710;9.202;2022-09-12T08:20:28;7.13;;;6.43;;
5135;SDS011;2586;48.710;9.202;2022-09-12T08:22:54;10.50;;;7.20;;
5135;SDS011;2586;48.710;9.202;2022-09-12T08:25:20;16.53;;;7.07;;
5135;SDS011;2586;48.710;9.202;2022-09-12T08:27:45;6.70;;;6.10;;
5135;SDS011;2586;48.710;9.202;2022-09-12T08:30:14;13.60;;;6.63;;
5135;SDS011;2586;48.710;9.202;2022-09-12T08:32:40;15.80;;;6.20;;
5135;SDS011;2586;48.710;9.202;2022-09-12T08:35:05;5.80;;;5.20;;
5135;SDS011;2586;48.710;9.202;2022-09-12T08:37:32;10.13;;;5.23;;
5135;SDS011;2586;48.710;9.202;2022-09-12T08:39:57;10.07;;;4.87;;
5135;SDS011;2586;48.710;9.202;2022-09-12T08:42:40;4.97;;;4.47;;
5135;SDS011;2586;48.710;9.202;2022-09-12T08:45:37;4.40;;;4.00;;
5135;SDS011;2586;48.710;9.202;2022-09-12T08:48:14;7.47;;;4.47;;
5135;SDS011;2586;48.710;9.202;2022-09-12T08:50:39;4.20;;;4.00;;
5135;SDS011;2586;48.710;9.202;2022-09-12T08:53:12;8.03;;;3.97;;
5135;SDS011;2586;48.710;9.202;2022-09-12T08:55:41;3.47;;;3.17;;
5135;SDS011;2586;48.710;9.202;2022-09-12T08:58:16;6.03;;;3.70;;
5135;SDS011;2586;48.710;9.202;2022-09-12T09:03:40;5.20;;;3.07;;
5135;SDS011;2586;48.710;9.202;2022-09-12T09:14:42;5.63;;;2.70;;
5135;SDS011;2586;48.710;9.202;2022-09-12T09:18:03;6.60;;;2.30;;
5135;SDS011;2586;48.710;9.202;2022-09-12T09:22:51;2.93;;;2.80;;
5135;SDS011;2586;48.710;9.202;2022-09-12T09:25:23;3.67;;;2.33;;
5135;SDS011;2586;48.710;9.202;2022-09-12T09:27:58;7.83;;;2.60;;
5135;SDS011;2586;48.710;9.202;2022-09-12T09:30:29;4.10;;;2.03;;
5135;SDS011;2586;48.710;9.202;2022-09-12T09:32:56;5.90;;;2.87;;
5135;SDS011;2586;48.710;9.202;2022-09-12T09:35:31;3.90;;;2.17;;
5135;SDS011;2586;48.710;9.202;2022-09-12T09:38:21;1.83;;;1.73;;
5135;SDS011;2586;48.710;9.202;2022-09-12T09:44:13;10.90;;;2.00;;
5135;SDS011;2586;48.710;9.202;2022-09-12T09:46:39;2.27;;;1.90;;
5135;SDS011;2586;48.710;9.202;2022-09-12T09:49:05;8.43;;;2.40;;
5135;SDS011;2586;48.710;9.202;2022-09-12T09:51:33;2.47;;;2.30;;
5135;SDS011;2586;48.710;9.202;2022-09-12T09:56:39;1.80;;;1.60;;
5135;SDS011;2586;48.710;9.202;2022-09-12T10:04:39;4.00;;;2.50;;
5135;SDS011;2586;48.710;9.202;2022-09-12T10:07:17;3.83;;;1.80;;
5135;SDS011;2586;48.710;9.202;2022-09-12T10:10:04;1.90;;;1.27;;
5135;SDS011;2586;48.710;9.202;2022-09-12T10:12:30;3.87;;;2.07;;
5135;SDS011;2586;48.710;9.202;2022-09-12T10:15:03;2.43;;;1.60;;
5135;SDS011;2586;48.710;9.202;2022-09-12T10:17:42;7.90;;;1.90;;
5135;SDS011;2586;48.710;9.202;2022-09-12T10:20:28;2.07;;;1.30;;
5135;SDS011;2586;48.710;9.202;2022-09-12T10:25:55;1.73;;;1.40;;
5135;SDS011;2586;48.710;9.202;2022-09-12T10:28:31;8.33;;;1.60;;
5135;SDS011;2586;48.710;9.202;2022-09-12T10:31:03;5.60;;;1.57;;
5135;SDS011;2586;48.710;9.202;2022-09-12T10:33:30;1.93;;;1.80;;
5135;SDS011;2586;48.710;9.202;2022-09-12T10:36:17;1.30;;;1.20;;
5135;SDS011;2586;48.710;9.202;2022-09-12T10:38:50;1.80;;;1.70;;
5135;SDS011;2586;48.710;9.202;2022-09-12T10:41:19;1.70;;;1.30;;
5135;SDS011;2586;48.710;9.202;2022-09-12T10:43:46;3.60;;;1.77;;
5135;SDS011;2586;48.710;9.202;2022-09-12T10:48:46;5.17;;;1.73;;
5135;SDS011;2586;48.710;9.202;2022-09-12T10:51:26;7.90;;;1.60;;
5135;SDS011;2586;48.710;9.202;2022-09-12T10:54:03;1.00;;;1.00;;
5135;SDS011;2586;48.710;9.202;2022-09-12T10:56:33;1.37;;;1.27;;
5135;SDS011;2586;48.710;9.202;2022-09-12T10:59:39;1.40;;;1.30;;
5135;SDS011;2586;48.710;9.202;2022-09-12T11:05:21;2.87;;;1.33;;
5135;SDS011;2586;48.710;9.202;2022-09-12T11:14:03;2.33;;;1.30;;
5135;SDS011;2586;48.710;9.202;2022-09-12T11:24:45;3.37;;;1.27;;
5135;SDS011;2586;48.710;9.202;2022-09-12T11:30:08;1.30;;;1.20;;
5135;SDS011;2586;48.710;9.202;2022-09-12T11:35:29;2.00;;;1.17;;
5135;SDS011;2586;48.710;9.202;2022-09-12T11:46:18;0.87;;;0.87;;
5135;SDS011;2586;48.710;9.202;2022-09-12T11:57:13;1.30;;;0.90;;
5135;SDS011;2586;48.710;9.202;2022-09-12T12:02:28;2.03;;;0.80;;
5135;SDS011;2586;48.710;9.202;2022-09-12T12:05:03;1.27;;;0.70;;
5135;SDS011;2586;48.710;9.202;2022-09-12T12:07:51;1.87;;;0.90;;
5135;SDS011;2586;48.710;9.202;2022-09-12T12:10:32;1.10;;;1.10;;
5135;SDS011;2586;48.710;9.202;2022-09-12T12:12:59;1.47;;;1.00;;
5135;SDS011;2586;48.710;9.202;2022-09-12T12:15:26;0.87;;;0.80;;
5135;SDS011;2586;48.710;9.202;2022-09-12T12:20:41;0.80;;;0.80;;
5135;SDS011;2586;48.710;9.202;2022-09-12T12:23:20;1.07;;;1.07;;
5135;SDS011;2586;48.710;9.202;2022-09-12T12:31:05;0.60;;;0.60;;
5135;SDS011;2586;48.710;9.202;2022-09-12T12:38:27;1.27;;;0.80;;
5135;SDS011;2586;48.710;9.202;2022-09-12T12:43:45;1.30;;;0.80;;
5135;SDS011;2586;48.710;9.202;2022-09-12T12:46:22;0.80;;;0.80;;
5135;SDS011;2586;48.710;9.202;2022-09-12T12:51:35;1.20;;;0.97;;
5135;SDS011;2586;48.710;9.202;2022-09-12T12:54:03;1.13;;;0.70;;
5135;SDS011;2586;48.710;9.202;2022-09-12T12:56:49;2.67;;;0.63;;
5135;SDS011;2586;48.710;9.202;2022-09-12T12:59:29;0.70;;;0.70;;
5135;SDS011;2586;48.710;9.202;2022-09-12T13:01:55;0.90;;;0.70;;
5135;SDS011;2586;48.710;9.202;2022-09-12T13:04:24;0.70;;;0.63;;
5135;SDS011;2586;48.710;9.202;2022-09-12T13:07:04;0.67;;;0.60;;
5135;SDS011;2586;48.710;9.202;2022-09-12T13:12:20;3.50;;;0.60;;
5135;SDS011;2586;48.710;9.202;2022-09-12T13:14:52;1.37;;;0.90;;
5135;SDS011;2586;48.710;9.202;2022-09-12T13:22:37;0.57;;;0.53;;
5135;SDS011;2586;48.710;9.202;2022-09-12T13:25:19;0.50;;;0.50;;
5135;SDS011;2586;48.710;9.202;2022-09-12T13:30:46;0.80;;;0.67;;
5135;SDS011;2586;48.710;9.202;2022-09-12T13:35:52;2.53;;;0.57;;
5135;SDS011;2586;48.710;9.202;2022-09-12T13:38:25;0.70;;;0.70;;
5135;SDS011;2586;48.710;9.202;2022-09-12T13:43:46;0.67;;;0.67;;
5135;SDS011;2586;48.710;9.202;2022-09-12T13:46:14;0.87;;;0.87;;
5135;SDS011;2586;48.710;9.202;2022-09-12T13:48:45;2.90;;;0.63;;
5135;SDS011;2586;48.710;9.202;2022-09-12T13:51:33;1.10;;;0.60;;
5135;SDS011;2586;48.710;9.202;2022-09-12T13:53:58;0.70;;;0.60;;
5135;SDS011;2586;48.710;9.202;2022-09-12T13:56:28;1.40;;;0.70;;
5135;SDS011;2586;48.710;9.202;2022-09-12T13:58:54;0.73;;;0.73;;
5135;SDS011;2586;48.710;9.202;2022-09-12T14:01:22;1.50;;;0.97;;
5135;SDS011;2586;48.710;9.202;2022-09-12T14:04:00;1.10;;;0.80;;
5135;SDS011;2586;48.710;9.202;2022-09-12T14:06:53;0.60;;;0.60;;
5135;SDS011;2586;48.710;9.202;2022-09-12T14:11:50;0.70;;;0.60;;
5135;SDS011;2586;48.710;9.202;2022-09-12T14:14:18;1.67;;;0.70;;
5135;SDS011;2586;48.710;9.202;2022-09-12T14:16:51;1.53;;;0.60;;
5135;SDS011;2586;48.710;9.202;2022-09-12T14:19:18;0.70;;;0.60;;
5135;SDS011;2586;48.710;9.202;2022-09-12T14:21:46;0.90;;;0.50;;
5135;SDS011;2586;48.710;9.202;2022-09-12T14:24:13;3.03;;;1.07;;
5135;SDS011;2586;48.710;9.202;2022-09-12T14:26:39;0.90;;;0.80;;
5135;SDS011;2586;48.710;9.202;2022-09-12T14:29:07;2.73;;;0.90;;
5135;SDS011;2586;48.710;9.202;2022-09-12T14:31:37;0.93;;;0.90;;
5135;SDS011;2586;48.710;9.202;2022-09-12T14:34:21;2.50;;;0.63;;
5135;SDS011;2586;48.710;9.202;2022-09-12T14:36:47;1.30;;;0.90;;
5135;SDS011;2586;48.710;9.202;2022-09-12T14:42:04;0.83;;;0.83;;
5135;SDS011;2586;48.710;9.202;2022-09-12T14:44:55;1.73;;;1.00;;
5135;SDS011;2586;48.710;9.202;2022-09-12T14:47:26;0.80;;;0.63;;
5135;SDS011;2586;48.710;9.202;2022-09-12T14:49:57;0.90;;;0.90;;
5135;SDS011;2586;48.710;9.202;2022-09-12T14:52:30;0.83;;;0.80;;
5135;SDS011;2586;48.710;9.202;2022-09-12T14:54:58;1.00;;;0.77;;
5135;SDS011;2586;48.710;9.202;2022-09-12T14:57:33;2.33;;;0.67;;
5135;SDS011;2586;48.710;9.202;2022-09-12T15:02:43;1.87;;;1.13;;
5135;SDS011;2586;48.710;9.202;2022-09-12T15:07:42;0.70;;;0.70;;
5135;SDS011;2586;48.710;9.202;2022-09-12T15:10:16;1.57;;;1.07;;
5135;SDS011;2586;48.710;9.202;2022-09-12T15:12:49;0.90;;;0.90;;
5135;SDS011;2586;48.710;9.202;2022-09-12T15:15:27;0.70;;;0.70;;
5135;SDS011;2586;48.710;9.202;2022-09-12T15:17:52;0.80;;;0.80;;
5135;SDS011;2586;48.710;9.202;2022-09-12T15:20:18;1.23;;;0.87;;
5135;SDS011;2586;48.710;9.202;2022-09-12T15:22:44;8.70;;;1.00;;
5135;SDS011;2586;48.710;9.202;2022-09-12T15:25:09;0.70;;;0.70;;
5135;SDS011;2586;48.710;9.202;2022-09-12T15:27:37;1.00;;;0.90;;
5135;SDS011;2586;48.710;9.202;2022-09-12T15:30:05;2.60;;;0.97;;
5135;SDS011;2586;48.710;9.202;2022-09-12T15:32:31;1.40;;;0.83;;
5135;SDS011;2586;48.710;9.202;2022-09-12T15:34:58;1.10;;;1.00;;
5135;SDS011;2586;48.710;9.202;2022-09-12T15:37:23;0.63;;;0.63;;
5135;SDS011;2586;48.710;9.202;2022-09-12T15:39:49;0.70;;;0.70;;
5135;SDS011;2586;48.710;9.202;2022-09-12T15:42:16;3.17;;;1.07;;
5135;SDS011;2586;48.710;9.202;2022-09-12T15:44:46;1.10;;;1.00;;
5135;SDS011;2586;48.710;9.202;2022-09-12T15:47:12;1.60;;;1.00;;
5135;SDS011;2586;48.710;9.202;2022-09-12T15:49:38;1.23;;;0.80;;
5135;SDS011;2586;48.710;9.202;2022-09-12T15:52:08;0.97;;;0.87;;
5135;SDS011;2586;48.710;9.202;2022-09-12T15:54:39;0.80;;;0.80;;
5135;SDS011;2586;48.710;9.202;2022-09-12T15:57:05;2.80;;;0.63;;
5135;SDS011;2586;48.710;9.202;2022-09-12T15:59:30;1.20;;;0.80;;
5135;SDS011;2586;48.710;9.202;2022-09-12T16:01:56;1.40;;;1.30;;
5135;SDS011;2586;48.710;9.202;2022-09-12T16:04:23;1.17;;;0.70;;
5135;SDS011;2586;48.710;9.202;2022-09-12T16:06:51;0.87;;;0.87;;
5135;SDS011;2586;48.710;9.202;2022-09-12T16:09:18;0.60;;;0.60;;
5135;SDS011;2586;48.710;9.202;2022-09-12T16:11:44;0.87;;;0.60;;
5135;SDS011;2586;48.710;9.202;2022-09-12T16:14:14;1.00;;;1.00;;
5135;SDS011;2586;48.710;9.202;2022-09-12T16:16:41;0.80;;;0.80;;
5135;SDS011;2586;48.710;9.202;2022-09-12T16:19:07;1.17;;;1.07;;
5135;SDS011;2586;48.710;9.202;2022-09-12T16:21:34;9.37;;;1.50;;
5135;SDS011;2586;48.710;9.202;2022-09-12T16:24:02;1.60;;;1.00;;
5135;SDS011;2586;48.710;9.202;2022-09-12T16:26:28;0.70;;;0.70;;
5135;SDS011;2586;48.710;9.202;2022-09-12T16:28:55;1.53;;;0.50;;
5135;SDS011;2586;48.710;9.202;2022-09-12T16:31:21;1.00;;;0.60;;
5135;SDS011;2586;48.710;9.202;2022-09-12T16:33:47;0.90;;;0.87;;
5135;SDS011;2586;48.710;9.202;2022-09-12T16:36:14;1.13;;;1.03;;
5135;SDS011;2586;48.710;9.202;2022-09-12T16:38:41;1.40;;;0.83;;
5135;SDS011;2586;48.710;9.202;2022-09-12T16:41:24;1.43;;;0.90;;
5135;SDS011;2586;48.710;9.202;2022-09-12T16:43:50;1.03;;;0.97;;
5135;SDS011;2586;48.710;9.202;2022-09-12T16:46:17;3.53;;;0.90;;
5135;SDS011;2586;48.710;9.202;2022-09-12T16:48:49;0.80;;;0.80;;
5135;SDS011;2586;48.710;9.202;2022-09-12T16:51:17;2.30;;;0.90;;
5135;SDS011;2586;48.710;9.202;2022-09-12T16:53:44;1.83;;;0.83;;
5135;SDS011;2586;48.710;9.202;2022-09-12T16:56:10;2.10;;;1.10;;
5135;SDS011;2586;48.710;9.202;2022-09-12T16:58:37;1.33;;;0.87;;
5135;SDS011;2586;48.710;9.202;2022-09-12T17:01:08;0.90;;;0.90;;
5135;SDS011;2586;48.710;9.202;2022-09-12T17:03:39;1.23;;;0.90;;
5135;SDS011;2586;48.710;9.202;2022-09-12T17:06:09;1.00;;;1.00;;
5135;SDS011;2586;48.710;9.202;2022-09-12T17:08:38;0.83;;;0.83;;
5135;SDS011;2586;48.710;9.202;2022-09-12T17:11:06;3.23;;;1.07;;
5135;SDS011;2586;48.710;9.202;2022-09-12T17:13:33;1.77;;;1.00;;
5135;SDS011;2586;48.710;9.202;2022-09-12T17:15:59;0.70;;;0.70;;
5135;SDS011;2586;48.710;9.202;2022-09-12T17:18:34;1.50;;;1.17;;
5135;SDS011;2586;48.710;9.202;2022-09-12T17:21:00;1.40;;;1.27;;
5135;SDS011;2586;48.710;9.202;2022-09-12T17:23:25;0.73;;;0.73;;
5135;SDS011;2586;48.710;9.202;2022-09-12T17:25:51;0.73;;;0.70;;
5135;SDS011;2586;48.710;9.202;2022-09-12T17:28:17;1.23;;;0.80;;
5135;SDS011;2586;48.710;9.202;2022-09-12T17:30:44;0.93;;;0.90;;
5135;SDS011;2586;48.710;9.202;2022-09-12T17:33:09;0.83;;;0.80;;
5135;SDS011;2586;48.710;9.202;2022-09-12T17:35:36;0.90;;;0.70;;
5135;SDS011;2586;48.710;9.202;2022-09-12T17:38:03;3.83;;;1.00;;
5135;SDS011;2586;48.710;9.202;2022-09-12T17:40:29;1.33;;;0.70;;
5135;SDS011;2586;48.710;9.202;2022-09-12T17:42:55;1.70;;;0.80;;
5135;SDS011;2586;48.710;9.202;2022-09-12T17:45:21;6.63;;;0.80;;
5135;SDS011;2586;48.710;9.202;2022-09-12T17:47:47;3.93;;;1.00;;
5135;SDS011;2586;48.710;9.202;2022-09-12T17:50:13;2.57;;;0.80;;
5135;SDS011;2586;48.710;9.202;2022-09-12T17:52:43;0.73;;;0.70;;
5135;SDS011;2586;48.710;9.202;2022-09-12T17:55:09;3.50;;;1.10;;
5135;SDS011;2586;48.710;9.202;2022-09-12T17:57:36;1.37;;;0.90;;
5135;SDS011;2586;48.710;9.202;2022-09-12T18:00:03;2.13;;;2.03;;
5135;SDS011;2586;48.710;9.202;2022-09-12T18:02:29;13.73;;;4.97;;
5135;SDS011;2586;48.710;9.202;2022-09-12T18:04:54;1.63;;;1.53;;
5135;SDS011;2586;48.710;9.202;2022-09-12T18:07:20;5.23;;;1.43;;
5135;SDS011;2586;48.710;9.202;2022-09-12T18:09:46;6.80;;;1.00;;